createdAt,value
2023-09-13T00:00:20.749Z,71
2023-09-13T00:00:52.393Z,72
2023-09-13T00:07:15.784Z,72
2023-09-13T00:07:47.638Z,72
2023-09-13T00:08:19.615Z,72
2023-09-13T00:08:51.446Z,72
2023-09-13T00:09:24.438Z,72
2023-09-13T00:09:55.647Z,72
2023-09-13T00:10:28.738Z,72
2023-09-13T00:10:59.524Z,72
2023-09-13T00:11:32.545Z,72
2023-09-13T00:12:03.356Z,72
2023-09-13T00:12:36.713Z,72
2023-09-13T00:13:07.577Z,72
2023-09-13T00:13:40.565Z,72
2023-09-13T00:14:11.475Z,72
2023-09-13T00:14:44.163Z,72
2023-09-13T00:15:16.567Z,72
2023-09-13T00:15:48.718Z,72
2023-09-13T00:16:19.599Z,72
2023-09-13T00:16:52.616Z,72
2023-09-13T00:17:23.468Z,72
2023-09-13T00:17:56.468Z,72
2023-09-13T00:18:27.581Z,72
2023-09-13T00:19:00.764Z,72
2023-09-13T00:19:31.505Z,72
2023-09-13T00:20:10.182Z,72
2023-09-13T00:20:35.690Z,72
2023-09-13T00:21:07.504Z,72
2023-09-13T00:21:45.432Z,72
2023-09-13T00:22:11.732Z,72
2023-09-13T00:22:44.625Z,72
2023-09-13T00:23:15.515Z,72
2023-09-13T00:23:48.513Z,72
2023-09-13T00:24:19.665Z,72
2023-09-13T00:24:52.476Z,72
2023-09-13T00:25:23.838Z,72
2023-09-13T00:25:56.377Z,72
2023-09-13T00:26:27.643Z,72
2023-09-13T00:27:00.385Z,72
2023-09-13T00:27:31.568Z,72
2023-09-13T00:28:04.544Z,72
2023-09-13T00:28:35.458Z,72
2023-09-13T00:29:08.397Z,72
2023-09-13T00:29:39.527Z,72
2023-09-13T00:30:13.507Z,72
2023-09-13T00:30:43.650Z,72
2023-09-13T00:31:16.426Z,72
2023-09-13T00:31:47.723Z,72
2023-09-13T00:32:20.328Z,72
2023-09-13T00:32:51.637Z,72
2023-09-13T00:33:24.429Z,72
2023-09-13T00:33:55.688Z,72
2023-09-13T00:34:28.312Z,72
2023-09-13T00:34:59.550Z,72
2023-09-13T00:35:32.866Z,72
2023-09-13T00:36:03.580Z,72
2023-09-13T00:36:36.555Z,72
2023-09-13T00:37:07.636Z,72
2023-09-13T00:37:40.353Z,72
2023-09-13T00:38:11.535Z,72
2023-09-13T00:38:44.444Z,72
2023-09-13T00:39:15.592Z,73
2023-09-13T00:39:48.292Z,73
2023-09-13T00:40:19.944Z,73
2023-09-13T00:40:52.395Z,73
2023-09-13T00:41:23.544Z,72
2023-09-13T00:41:56.379Z,72
2023-09-13T00:42:27.598Z,72
2023-09-13T00:43:00.591Z,72
2023-09-13T00:43:31.573Z,73
2023-09-13T00:44:04.391Z,73
2023-09-13T00:44:35.617Z,72
2023-09-13T00:45:09.521Z,72
2023-09-13T00:45:39.762Z,72
2023-09-13T00:46:12.444Z,72
2023-09-13T00:46:43.680Z,73
2023-09-13T00:47:16.554Z,73
2023-09-13T00:47:47.583Z,73
2023-09-13T00:48:20.391Z,73
2023-09-13T00:48:51.912Z,73
2023-09-13T00:49:24.200Z,73
2023-09-13T00:49:55.717Z,73
2023-09-13T00:50:34.220Z,73
2023-09-13T00:50:59.484Z,73
2023-09-13T00:51:32.433Z,73
2023-09-13T00:52:03.716Z,73
2023-09-13T00:52:36.860Z,73
2023-09-13T00:53:07.593Z,72
2023-09-13T00:53:40.391Z,72
2023-09-13T00:54:11.657Z,73
2023-09-13T00:54:44.444Z,73
2023-09-13T00:55:15.888Z,74
2023-09-13T00:55:48.466Z,74
2023-09-13T00:56:19.487Z,74
2023-09-13T00:56:52.322Z,74
2023-09-13T00:57:23.589Z,74
2023-09-13T00:57:56.686Z,74
2023-09-13T00:58:27.503Z,74
2023-09-13T00:59:00.509Z,74
2023-09-13T00:59:31.745Z,74
2023-09-13T01:00:05.765Z,74
2023-09-13T01:00:35.581Z,74
2023-09-13T01:01:08.546Z,74
2023-09-13T01:01:39.535Z,74
2023-09-13T01:02:12.474Z,74
2023-09-13T01:02:43.675Z,74
2023-09-13T01:03:16.787Z,74
2023-09-13T01:03:48.138Z,74
2023-09-13T01:04:20.548Z,74
2023-09-13T01:04:51.789Z,74
2023-09-13T01:05:24.639Z,74
2023-09-13T01:05:56.003Z,74
2023-09-13T01:06:28.384Z,74
2023-09-13T01:06:59.491Z,74
2023-09-13T01:07:32.583Z,74
2023-09-13T01:08:03.704Z,74
2023-09-13T01:08:36.568Z,74
2023-09-13T01:09:07.518Z,74
2023-09-13T01:09:40.446Z,74
2023-09-13T01:10:12.000Z,74
2023-09-13T01:10:44.465Z,74
2023-09-13T01:11:15.546Z,74
2023-09-13T01:11:48.428Z,74
2023-09-13T01:14:11.632Z,74
2023-09-13T01:14:43.595Z,74
2023-09-13T01:15:16.484Z,74
2023-09-13T01:15:47.732Z,74
2023-09-13T01:16:19.729Z,74
2023-09-13T01:16:51.709Z,74
2023-09-13T01:17:23.505Z,75
2023-09-13T01:17:55.660Z,75
2023-09-13T01:18:27.607Z,75
2023-09-13T01:18:59.744Z,75
2023-09-13T01:19:32.530Z,75
2023-09-13T01:20:03.935Z,75
2023-09-13T01:20:36.495Z,76
2023-09-13T01:21:07.650Z,76
2023-09-13T01:21:40.444Z,76
2023-09-13T01:22:11.719Z,76
2023-09-13T01:22:44.481Z,76
2023-09-13T01:23:15.550Z,76
2023-09-13T01:23:48.417Z,76
2023-09-13T01:24:19.540Z,76
2023-09-13T01:24:52.372Z,76
2023-09-13T01:25:23.882Z,76
2023-09-13T01:25:56.355Z,76
2023-09-13T01:26:27.578Z,76
2023-09-13T01:27:00.418Z,76
2023-09-13T01:27:31.694Z,76
2023-09-13T01:28:04.303Z,76
2023-09-13T01:28:35.559Z,76
2023-09-13T01:29:08.449Z,76
2023-09-13T01:29:39.640Z,76
2023-09-13T01:30:28.629Z,76
2023-09-13T01:30:59.634Z,76
2023-09-13T01:31:31.671Z,76
2023-09-13T01:32:03.751Z,76
2023-09-13T01:32:35.464Z,77
2023-09-13T01:33:08.684Z,77
2023-09-13T01:33:39.676Z,77
2023-09-13T01:34:12.582Z,77
2023-09-13T01:34:43.560Z,77
2023-09-13T01:35:16.756Z,77
2023-09-13T01:35:47.666Z,77
2023-09-13T01:36:20.391Z,77
2023-09-13T01:36:51.553Z,77
2023-09-13T01:37:24.781Z,77
2023-09-13T01:37:55.699Z,77
2023-09-13T01:38:28.600Z,77
2023-09-13T01:38:59.575Z,77
2023-09-13T01:39:32.514Z,77
2023-09-13T01:40:04.058Z,77
2023-09-13T01:40:36.632Z,77
2023-09-13T01:41:07.730Z,77
2023-09-13T01:41:40.299Z,77
2023-09-13T01:42:11.577Z,77
2023-09-13T01:42:27.801Z,77
2023-09-13T01:42:59.519Z,77
2023-09-13T01:43:31.614Z,77
2023-09-13T01:44:03.694Z,77
2023-09-13T01:44:35.472Z,77
2023-09-13T01:45:09.801Z,76
2023-09-13T01:45:39.704Z,76
2023-09-13T01:46:12.568Z,76
2023-09-13T01:46:43.687Z,76
2023-09-13T01:47:16.655Z,76
2023-09-13T01:47:47.783Z,76
2023-09-13T01:48:20.308Z,76
2023-09-13T01:49:24.458Z,76
2023-09-13T01:49:55.678Z,76
2023-09-13T01:50:28.629Z,76
2023-09-13T01:50:59.584Z,76
2023-09-13T01:51:38.083Z,76
2023-09-13T01:52:03.528Z,76
2023-09-13T01:52:35.577Z,76
2023-09-13T01:53:08.535Z,76
2023-09-13T01:53:39.630Z,77
2023-09-13T01:54:12.340Z,77
2023-09-13T01:54:43.638Z,76
2023-09-13T01:55:17.044Z,76
2023-09-13T01:55:47.427Z,77
2023-09-13T01:56:20.336Z,77
2023-09-13T01:56:51.678Z,77
2023-09-13T01:57:24.572Z,77
2023-09-13T01:57:55.612Z,76
2023-09-13T01:58:28.460Z,76
2023-09-13T01:58:59.650Z,76
2023-09-13T02:02:11.675Z,77
2023-09-13T02:02:43.841Z,77
2023-09-13T02:03:15.553Z,77
2023-09-13T02:03:48.670Z,77
2023-09-13T02:04:19.669Z,77
2023-09-13T02:04:52.613Z,77
2023-09-13T02:05:23.835Z,77
2023-09-13T02:05:56.491Z,77
2023-09-13T02:06:27.519Z,77
2023-09-13T02:07:00.526Z,77
2023-09-13T02:07:31.719Z,77
2023-09-13T02:08:04.549Z,77
2023-09-13T02:08:35.448Z,77
2023-09-13T02:09:08.343Z,77
2023-09-13T02:09:39.638Z,77
2023-09-13T02:10:12.660Z,77
2023-09-13T02:10:43.932Z,77
2023-09-13T02:11:16.452Z,77
2023-09-13T02:11:47.750Z,77
2023-09-13T02:12:20.452Z,77
2023-09-13T02:12:51.635Z,77
2023-09-13T02:13:24.550Z,77
2023-09-13T02:13:55.578Z,77
2023-09-13T02:14:28.374Z,77
2023-09-13T02:14:59.576Z,77
2023-09-13T02:15:34.909Z,77
2023-09-13T02:16:03.613Z,77
2023-09-13T02:16:42.207Z,77
2023-09-13T02:17:07.727Z,77
2023-09-13T02:17:39.530Z,77
2023-09-13T02:18:12.474Z,77
2023-09-13T02:18:43.780Z,77
2023-09-13T02:19:16.577Z,77
2023-09-13T02:19:47.640Z,77
2023-09-13T02:20:20.772Z,77
2023-09-13T02:20:51.641Z,77
2023-09-13T02:21:24.335Z,77
2023-09-13T02:21:55.640Z,77
2023-09-13T02:22:28.759Z,77
2023-09-13T02:22:59.538Z,77
2023-09-13T02:23:32.627Z,77
2023-09-13T02:24:03.686Z,77
2023-09-13T02:24:38.232Z,78
2023-09-13T02:25:08.012Z,78
2023-09-13T02:25:40.405Z,77
2023-09-13T02:26:11.659Z,77
2023-09-13T02:26:48.316Z,77
2023-09-13T02:27:15.564Z,77
2023-09-13T02:27:47.685Z,77
2023-09-13T02:28:19.827Z,77
2023-09-13T02:28:51.595Z,77
2023-09-13T02:29:24.310Z,77
2023-09-13T02:29:55.620Z,77
2023-09-13T02:30:29.448Z,77
2023-09-13T02:30:59.788Z,77
2023-09-13T02:31:32.609Z,77
2023-09-13T02:32:03.882Z,78
2023-09-13T02:32:36.715Z,78
2023-09-13T02:33:07.699Z,78
2023-09-13T02:33:40.637Z,78
2023-09-13T02:34:11.485Z,77
2023-09-13T02:34:44.377Z,77
2023-09-13T02:35:16.069Z,77
2023-09-13T02:35:48.538Z,77
2023-09-13T02:36:19.615Z,77
2023-09-13T02:36:52.550Z,77
2023-09-13T02:37:23.733Z,77
2023-09-13T02:37:56.484Z,77
2023-09-13T02:38:27.548Z,77
2023-09-13T02:39:00.585Z,77
2023-09-13T02:39:31.688Z,77
2023-09-13T02:40:04.795Z,77
2023-09-13T02:40:35.698Z,77
2023-09-13T02:41:08.269Z,77
2023-09-13T02:41:39.571Z,76
2023-09-13T02:42:12.553Z,76
2023-09-13T02:42:43.647Z,76
2023-09-13T02:43:16.597Z,76
2023-09-13T02:43:47.846Z,76
2023-09-13T02:44:20.629Z,76
2023-09-13T02:44:51.677Z,76
2023-09-13T02:45:25.527Z,76
2023-09-13T02:45:55.763Z,76
2023-09-13T02:46:28.647Z,76
2023-09-13T02:46:59.636Z,76
2023-09-13T02:47:32.662Z,76
2023-09-13T02:48:03.806Z,76
2023-09-13T02:48:36.603Z,76
2023-09-13T02:49:07.774Z,77
2023-09-13T02:49:40.412Z,77
2023-09-13T02:50:11.837Z,77
2023-09-13T02:50:44.584Z,77
2023-09-13T02:51:15.659Z,77
2023-09-13T02:51:48.777Z,77
2023-09-13T02:52:19.651Z,77
2023-09-13T02:52:52.608Z,77
2023-09-13T02:53:23.687Z,77
2023-09-13T02:53:56.492Z,77
2023-09-13T02:54:27.652Z,77
2023-09-13T02:55:01.068Z,77
2023-09-13T02:55:31.851Z,76
2023-09-13T02:56:04.449Z,76
2023-09-13T02:56:35.663Z,76
2023-09-13T02:57:08.612Z,76
2023-09-13T02:57:39.474Z,76
2023-09-13T02:58:12.468Z,76
2023-09-13T02:58:43.585Z,76
2023-09-13T02:59:16.529Z,76
2023-09-13T02:59:47.579Z,76
2023-09-13T03:00:22.258Z,76
2023-09-13T03:00:51.946Z,76
2023-09-13T03:01:24.346Z,76
2023-09-13T03:01:55.670Z,76
2023-09-13T03:02:28.766Z,76
2023-09-13T03:02:59.784Z,76
2023-09-13T03:03:32.430Z,76
2023-09-13T03:04:03.594Z,76
2023-09-13T03:04:37.013Z,76
2023-09-13T03:05:07.951Z,76
2023-09-13T03:05:40.425Z,76
2023-09-13T03:06:11.631Z,76
2023-09-13T03:06:44.664Z,76
2023-09-13T03:07:15.683Z,77
2023-09-13T03:07:48.526Z,77
2023-09-13T03:08:19.664Z,77
2023-09-13T03:08:52.383Z,77
2023-09-13T03:09:23.562Z,78
2023-09-13T03:09:56.435Z,78
2023-09-13T03:10:27.874Z,78
2023-09-13T03:11:00.535Z,78
2023-09-13T03:11:31.619Z,77
2023-09-13T03:12:04.750Z,77
2023-09-13T03:12:35.574Z,77
2023-09-13T03:13:08.573Z,77
2023-09-13T03:13:39.756Z,77
2023-09-13T03:14:12.293Z,77
2023-09-13T03:14:43.569Z,77
2023-09-13T03:15:17.597Z,77
2023-09-13T03:15:47.923Z,78
2023-09-13T03:16:20.460Z,78
2023-09-13T03:16:51.625Z,78
2023-09-13T03:17:24.548Z,78
2023-09-13T03:17:56.905Z,78
2023-09-13T03:18:28.387Z,78
2023-09-13T03:18:59.898Z,78
2023-09-13T03:19:32.612Z,78
2023-09-13T03:20:03.923Z,78
2023-09-13T03:20:36.550Z,78
2023-09-13T03:21:07.724Z,78
2023-09-13T03:21:40.337Z,78
2023-09-13T03:22:11.666Z,78
2023-09-13T03:22:44.574Z,78
2023-09-13T03:23:15.653Z,78
2023-09-13T03:23:48.586Z,78
2023-09-13T03:24:19.700Z,78
2023-09-13T03:24:52.507Z,78
2023-09-13T03:25:23.836Z,78
2023-09-13T03:25:56.395Z,78
2023-09-13T03:26:27.655Z,78
2023-09-13T03:27:00.784Z,78
2023-09-13T03:27:31.641Z,78
2023-09-13T03:28:04.556Z,78
2023-09-13T03:28:35.662Z,78
2023-09-13T03:29:08.474Z,78
2023-09-13T03:29:39.595Z,78
2023-09-13T03:30:13.497Z,78
2023-09-13T03:30:43.626Z,78
2023-09-13T03:31:16.407Z,78
2023-09-13T03:31:47.809Z,78
2023-09-13T03:32:20.683Z,78
2023-09-13T03:32:51.608Z,77
2023-09-13T03:33:24.507Z,77
2023-09-13T03:33:55.737Z,78
2023-09-13T03:34:28.462Z,78
2023-09-13T03:34:59.531Z,78
2023-09-13T03:35:32.858Z,78
2023-09-13T03:36:03.716Z,78
2023-09-13T03:36:40.396Z,78
2023-09-13T03:37:07.701Z,78
2023-09-13T03:37:39.639Z,78
2023-09-13T03:38:11.517Z,78
2023-09-13T03:38:43.564Z,78
2023-09-13T03:39:15.586Z,78
2023-09-13T03:39:47.818Z,78
2023-09-13T03:40:19.965Z,78
2023-09-13T03:40:51.584Z,78
2023-09-13T03:41:23.632Z,78
2023-09-13T03:41:58.407Z,78
2023-09-13T03:42:28.602Z,78
2023-09-13T03:42:59.693Z,78
2023-09-13T03:43:32.397Z,78
2023-09-13T03:44:03.648Z,78
2023-09-13T03:44:36.474Z,78
2023-09-13T03:45:08.940Z,78
2023-09-13T03:45:40.648Z,79
2023-09-13T03:46:11.705Z,79
2023-09-13T03:46:44.598Z,79
2023-09-13T03:47:15.609Z,79
2023-09-13T03:47:48.694Z,79
2023-09-13T03:48:19.581Z,79
2023-09-13T03:48:52.883Z,79
2023-09-13T03:49:23.575Z,79
2023-09-13T03:49:56.430Z,79
2023-09-13T03:50:28.015Z,79
2023-09-13T03:51:01.258Z,79
2023-09-13T03:51:31.589Z,79
2023-09-13T03:52:04.553Z,79
2023-09-13T03:52:35.713Z,79
2023-09-13T03:53:08.236Z,79
2023-09-13T03:53:39.633Z,79
2023-09-13T03:54:12.456Z,79
2023-09-13T03:54:43.671Z,79
2023-09-13T03:55:16.778Z,79
2023-09-13T03:55:47.710Z,79
2023-09-13T03:56:20.314Z,80
2023-09-13T03:56:51.558Z,80
2023-09-13T03:57:24.488Z,80
2023-09-13T03:57:55.760Z,80
2023-09-13T03:58:28.491Z,80
2023-09-13T03:58:59.614Z,80
2023-09-13T03:59:32.601Z,80
2023-09-13T04:00:05.408Z,80
2023-09-13T04:00:36.950Z,80
2023-09-13T04:01:07.628Z,80
2023-09-13T04:01:40.507Z,80
2023-09-13T04:02:11.597Z,80
2023-09-13T04:02:44.635Z,80
2023-09-13T04:03:15.672Z,80
2023-09-13T04:03:48.846Z,79
2023-09-13T04:04:19.775Z,79
2023-09-13T04:04:52.592Z,79
2023-09-13T04:05:24.148Z,79
2023-09-13T04:05:56.473Z,79
2023-09-13T04:06:27.690Z,79
2023-09-13T04:07:00.520Z,79
2023-09-13T04:07:31.631Z,79
2023-09-13T04:08:04.635Z,79
2023-09-13T04:08:35.595Z,79
2023-09-13T04:09:08.560Z,79
2023-09-13T04:09:39.576Z,79
2023-09-13T04:10:12.878Z,79
2023-09-13T04:10:43.687Z,79
2023-09-13T04:11:16.300Z,79
2023-09-13T04:11:47.612Z,79
2023-09-13T04:12:20.633Z,79
2023-09-13T04:12:51.771Z,79
2023-09-13T04:13:24.653Z,80
2023-09-13T04:13:55.667Z,80
2023-09-13T04:14:28.568Z,80
2023-09-13T04:14:59.716Z,80
2023-09-13T04:15:33.697Z,80
2023-09-13T04:16:03.721Z,80
2023-09-13T04:16:36.595Z,80
2023-09-13T04:17:07.636Z,80
2023-09-13T04:17:40.748Z,80
2023-09-13T04:18:11.787Z,80
2023-09-13T04:18:44.353Z,80
2023-09-13T04:19:15.638Z,80
2023-09-13T04:19:48.529Z,80
2023-09-13T04:20:19.874Z,80
2023-09-13T04:20:52.556Z,80
2023-09-13T04:21:23.679Z,80
2023-09-13T04:21:56.578Z,80
2023-09-13T04:22:27.607Z,80
2023-09-13T04:23:00.568Z,81
2023-09-13T04:23:31.633Z,81
2023-09-13T04:24:04.320Z,81
2023-09-13T04:24:35.586Z,81
2023-09-13T04:25:08.884Z,81
2023-09-13T04:25:39.743Z,81
2023-09-13T04:26:12.557Z,81
2023-09-13T04:26:43.630Z,81
2023-09-13T04:27:16.590Z,81
2023-09-13T04:27:47.675Z,81
2023-09-13T04:28:20.364Z,81
2023-09-13T04:28:51.674Z,81
2023-09-13T04:29:24.568Z,81
2023-09-13T04:29:55.610Z,81
2023-09-13T04:30:29.910Z,81
2023-09-13T04:30:59.973Z,81
2023-09-13T04:31:32.548Z,81
2023-09-13T04:32:03.651Z,81
2023-09-13T04:32:36.648Z,81
2023-09-13T04:33:08.046Z,81
2023-09-13T04:33:40.431Z,81
2023-09-13T04:34:11.693Z,81
2023-09-13T04:34:44.438Z,81
2023-09-13T04:35:15.936Z,81
2023-09-13T04:35:48.625Z,81
2023-09-13T04:36:19.702Z,81
2023-09-13T04:36:52.434Z,81
2023-09-13T04:37:23.635Z,81
2023-09-13T04:37:56.556Z,82
2023-09-13T04:38:27.723Z,82
2023-09-13T04:39:00.481Z,81
2023-09-13T04:39:31.643Z,81
2023-09-13T04:40:05.061Z,82
2023-09-13T04:40:35.541Z,82
2023-09-13T04:41:08.524Z,82
2023-09-13T04:41:39.765Z,82
2023-09-13T04:42:12.806Z,82
2023-09-13T04:42:43.665Z,82
2023-09-13T04:42:59.912Z,82
2023-09-13T04:43:31.615Z,82
2023-09-13T04:44:03.627Z,82
2023-09-13T04:44:35.674Z,82
2023-09-13T04:45:08.746Z,82
2023-09-13T04:45:40.560Z,82
2023-09-13T04:46:11.780Z,82
2023-09-13T04:46:44.735Z,82
2023-09-13T04:47:15.535Z,82
2023-09-13T04:47:48.679Z,81
2023-09-13T04:48:19.689Z,81
2023-09-13T04:48:52.966Z,82
2023-09-13T04:49:23.609Z,82
2023-09-13T04:49:56.512Z,81
2023-09-13T04:50:28.179Z,81
2023-09-13T04:51:00.581Z,81
2023-09-13T04:51:31.640Z,81
2023-09-13T04:52:04.820Z,81
2023-09-13T04:52:35.770Z,81
2023-09-13T04:53:08.502Z,81
2023-09-13T04:53:39.641Z,81
2023-09-13T04:54:12.786Z,81
2023-09-13T04:54:43.758Z,81
2023-09-13T04:55:17.024Z,80
2023-09-13T04:55:47.916Z,80
2023-09-13T04:56:21.003Z,80
2023-09-13T04:56:51.881Z,80
2023-09-13T04:57:24.840Z,80
2023-09-13T04:57:55.983Z,80
2023-09-13T04:58:31.622Z,80
2023-09-13T04:58:59.870Z,80
2023-09-13T04:59:32.637Z,80
2023-09-13T05:00:05.756Z,80
2023-09-13T05:00:38.262Z,80
2023-09-13T05:01:08.265Z,80
2023-09-13T05:01:40.939Z,80
2023-09-13T05:02:12.032Z,80
2023-09-13T05:02:44.982Z,80
2023-09-13T05:03:15.982Z,80
2023-09-13T05:03:49.219Z,80
2023-09-13T05:04:19.964Z,80
2023-09-13T05:04:52.577Z,80
2023-09-13T05:05:24.364Z,80
2023-09-13T05:05:56.812Z,80
2023-09-13T05:06:27.789Z,80
2023-09-13T05:07:01.033Z,80
2023-09-13T05:07:31.833Z,80
2023-09-13T05:08:04.731Z,80
2023-09-13T05:08:35.873Z,80
2023-09-13T05:09:08.613Z,80
2023-09-13T05:09:39.781Z,80
2023-09-13T05:10:13.029Z,80
2023-09-13T05:10:43.995Z,80
2023-09-13T05:11:16.688Z,80
2023-09-13T05:11:47.894Z,80
2023-09-13T05:12:20.831Z,80
2023-09-13T05:12:52.057Z,80
2023-09-13T05:13:24.856Z,80
2023-09-13T05:13:55.835Z,80
2023-09-13T05:14:28.683Z,80
2023-09-13T05:15:00.023Z,80
2023-09-13T05:15:33.902Z,80
2023-09-13T05:16:04.061Z,80
2023-09-13T05:16:36.992Z,80
2023-09-13T05:17:07.933Z,80
2023-09-13T05:17:40.762Z,80
2023-09-13T05:18:11.916Z,80
2023-09-13T05:18:44.671Z,80
2023-09-13T05:19:15.855Z,80
2023-09-13T05:19:48.745Z,80
2023-09-13T05:20:20.330Z,80
2023-09-13T05:20:52.712Z,80
2023-09-13T05:21:23.908Z,80
2023-09-13T05:21:56.800Z,80
2023-09-13T05:22:27.836Z,80
2023-09-13T05:23:01.689Z,80
2023-09-13T05:23:31.947Z,80
2023-09-13T05:24:04.871Z,80
2023-09-13T05:24:35.804Z,80
2023-09-13T05:25:08.998Z,80
2023-09-13T05:25:39.983Z,80
2023-09-13T05:26:12.660Z,81
2023-09-13T05:26:43.867Z,81
2023-09-13T05:27:16.755Z,81
2023-09-13T05:27:47.984Z,81
2023-09-13T05:28:20.629Z,81
2023-09-13T05:28:51.905Z,81
2023-09-13T05:29:24.842Z,81
2023-09-13T05:29:55.934Z,81
2023-09-13T05:30:29.820Z,81
2023-09-13T05:31:00.118Z,81
2023-09-13T05:31:32.892Z,81
2023-09-13T05:32:04.095Z,81
2023-09-13T05:32:36.983Z,81
2023-09-13T05:33:07.933Z,81
2023-09-13T05:33:40.704Z,81
2023-09-13T05:34:11.895Z,81
2023-09-13T05:34:44.728Z,81
2023-09-13T05:35:16.230Z,81
2023-09-13T05:35:48.794Z,81
2023-09-13T05:36:19.965Z,81
2023-09-13T05:36:52.787Z,82
2023-09-13T05:37:23.928Z,82
2023-09-13T05:37:56.870Z,81
2023-09-13T05:38:27.947Z,81
2023-09-13T05:39:00.743Z,82
2023-09-13T05:39:31.796Z,82
2023-09-13T05:40:05.134Z,82
2023-09-13T05:40:35.961Z,82
2023-09-13T05:41:08.802Z,82
2023-09-13T05:41:39.891Z,82
2023-09-13T05:42:12.868Z,82
2023-09-13T05:42:43.964Z,82
2023-09-13T05:43:16.842Z,82
2023-09-13T05:43:48.069Z,82
2023-09-13T05:44:20.736Z,82
2023-09-13T05:44:51.863Z,82
2023-09-13T05:45:26.005Z,82
2023-09-13T05:45:56.134Z,82
2023-09-13T05:46:28.961Z,82
2023-09-13T05:46:59.945Z,82
2023-09-13T05:47:33.005Z,82
2023-09-13T05:48:04.148Z,82
2023-09-13T05:48:36.771Z,82
2023-09-13T05:49:08.002Z,82
2023-09-13T05:49:40.894Z,82
2023-09-13T05:50:12.126Z,82
2023-09-13T05:50:28.024Z,82
2023-09-13T05:51:00.170Z,82
2023-09-13T05:51:31.873Z,82
2023-09-13T05:52:05.089Z,82
2023-09-13T05:52:36.017Z,82
2023-09-13T05:53:08.659Z,82
2023-09-13T05:53:39.939Z,82
2023-09-13T05:54:12.852Z,82
2023-09-13T05:54:44.000Z,82
2023-09-13T05:55:18.071Z,82
2023-09-13T05:55:47.942Z,82
2023-09-13T05:56:20.826Z,82
2023-09-13T05:56:51.862Z,82
2023-09-13T05:57:24.860Z,82
2023-09-13T05:57:55.899Z,82
2023-09-13T05:58:28.554Z,82
2023-09-13T05:58:59.883Z,81
2023-09-13T05:59:32.685Z,81
2023-09-13T06:00:05.813Z,81
2023-09-13T06:00:36.907Z,81
2023-09-13T06:01:07.970Z,81
2023-09-13T06:01:40.830Z,81
2023-09-13T06:02:11.881Z,81
2023-09-13T06:02:45.057Z,81
2023-09-13T06:03:16.068Z,81
2023-09-13T06:03:48.898Z,81
2023-09-13T06:04:20.003Z,81
2023-09-13T06:04:52.790Z,81
2023-09-13T06:05:24.287Z,80
2023-09-13T06:05:56.582Z,80
2023-09-13T06:06:27.856Z,80
2023-09-13T06:07:00.923Z,80
2023-09-13T06:07:32.044Z,80
2023-09-13T06:08:04.893Z,80
2023-09-13T06:08:35.936Z,80
2023-09-13T06:09:08.905Z,80
2023-09-13T06:09:39.794Z,80
2023-09-13T06:10:13.193Z,80
2023-09-13T06:10:43.965Z,79
2023-09-13T06:11:16.809Z,79
2023-09-13T06:11:47.870Z,79
2023-09-13T06:12:20.864Z,79
2023-09-13T06:12:52.058Z,79
2023-09-13T06:13:24.828Z,79
2023-09-13T06:13:55.912Z,79
2023-09-13T06:14:28.776Z,79
2023-09-13T06:14:59.990Z,79
2023-09-13T06:15:34.061Z,79
2023-09-13T06:16:04.071Z,78
2023-09-13T06:16:36.965Z,78
2023-09-13T06:17:07.908Z,78
2023-09-13T06:17:42.123Z,78
2023-09-13T06:18:12.051Z,78
2023-09-13T06:18:44.738Z,78
2023-09-13T06:19:15.938Z,77
2023-09-13T06:19:48.726Z,77
2023-09-13T06:20:20.286Z,77
2023-09-13T06:20:52.826Z,77
2023-09-13T06:21:23.953Z,77
2023-09-13T06:21:56.859Z,77
2023-09-13T06:22:27.968Z,77
2023-09-13T06:23:00.906Z,77
2023-09-13T06:23:32.022Z,77
2023-09-13T06:24:04.875Z,77
2023-09-13T06:24:35.919Z,77
2023-09-13T06:25:10.926Z,77
2023-09-13T06:25:40.063Z,77
2023-09-13T06:26:13.758Z,77
2023-09-13T06:26:43.884Z,77
2023-09-13T06:27:17.014Z,77
2023-09-13T06:27:47.866Z,77
2023-09-13T06:28:20.777Z,77
2023-09-13T06:28:52.132Z,77
2023-09-13T06:29:24.794Z,77
2023-09-13T06:29:55.886Z,77
2023-09-13T06:30:29.915Z,77
2023-09-13T06:31:03.822Z,77
2023-09-13T06:31:34.280Z,77
2023-09-13T06:32:06.323Z,77
2023-09-13T06:32:41.242Z,77
2023-09-13T06:33:12.651Z,77
2023-09-13T06:33:42.821Z,77
2023-09-13T06:34:23.461Z,77
2023-09-13T06:34:44.790Z,77
2023-09-13T06:35:16.793Z,77
2023-09-13T06:35:48.977Z,77
2023-09-13T06:36:20.638Z,77
2023-09-13T06:36:53.364Z,77
2023-09-13T06:37:24.347Z,77
2023-09-13T06:37:56.956Z,77
2023-09-13T06:38:28.843Z,77
2023-09-13T06:39:01.061Z,77
2023-09-13T06:39:32.358Z,77
2023-09-13T06:40:05.254Z,77
2023-09-13T06:40:36.760Z,77
2023-09-13T06:41:09.373Z,77
2023-09-13T06:41:40.383Z,77
2023-09-13T06:42:26.683Z,77
2023-09-13T06:43:30.575Z,77
2023-09-13T06:44:05.335Z,77
2023-09-13T06:44:39.777Z,77
2023-09-13T06:44:53.437Z,76
2023-09-13T06:45:27.590Z,76
2023-09-13T06:46:04.341Z,76
2023-09-13T06:46:30.406Z,76
2023-09-13T06:47:04.686Z,76
2023-09-13T06:47:35.148Z,76
2023-09-13T06:48:04.547Z,75
2023-09-13T06:48:37.943Z,75
2023-09-13T06:49:08.840Z,75
2023-09-13T06:49:41.385Z,75
2023-09-13T06:50:15.132Z,74
2023-09-13T06:51:22.254Z,74
2023-09-13T06:51:48.889Z,74
2023-09-13T06:52:06.415Z,74
2023-09-13T06:52:44.280Z,74
2023-09-13T06:53:22.266Z,74
2023-09-13T06:54:14.111Z,74
2023-09-13T06:54:46.363Z,74
2023-09-13T06:55:19.037Z,74
2023-09-13T06:55:49.289Z,73
2023-09-13T06:56:23.963Z,73
2023-09-13T06:56:54.815Z,73
2023-09-13T06:57:26.455Z,73
2023-09-13T06:57:56.897Z,74
2023-09-13T06:58:29.694Z,74
2023-09-13T06:59:02.968Z,74
2023-09-13T06:59:41.914Z,74
2023-09-13T07:00:08.300Z,73
2023-09-13T07:00:48.277Z,73
2023-09-13T07:02:06.230Z,73
2023-09-13T07:02:27.553Z,73
2023-09-13T07:02:33.085Z,73
2023-09-13T07:03:01.725Z,73
2023-09-13T07:03:35.321Z,73
2023-09-13T07:04:09.362Z,73
2023-09-13T07:04:40.899Z,73
2023-09-13T07:05:40.066Z,73
2023-09-13T07:06:12.836Z,73
2023-09-13T07:06:43.934Z,73
2023-09-13T07:07:00.287Z,73
2023-09-13T07:07:31.889Z,73
2023-09-13T07:08:03.923Z,73
2023-09-13T07:08:37.028Z,73
2023-09-13T07:09:08.060Z,73
2023-09-13T07:09:40.668Z,73
2023-09-13T07:10:12.299Z,73
2023-09-13T07:10:44.789Z,73
2023-09-13T07:11:15.951Z,73
2023-09-13T07:11:49.037Z,74
2023-09-13T07:12:21.827Z,74
2023-09-13T07:12:53.033Z,73
2023-09-13T07:13:23.834Z,73
2023-09-13T07:13:56.779Z,73
2023-09-13T07:14:28.064Z,73
2023-09-13T07:15:02.495Z,73
2023-09-13T07:15:32.076Z,73
2023-09-13T07:16:04.962Z,73
2023-09-13T07:16:36.106Z,73
2023-09-13T07:17:09.150Z,73
2023-09-13T07:17:40.113Z,73
2023-09-13T07:18:12.843Z,73
2023-09-13T07:18:44.206Z,73
2023-09-13T07:19:16.757Z,73
2023-09-13T07:19:48.106Z,73
2023-09-13T07:20:21.240Z,73
2023-09-13T07:20:51.932Z,73
2023-09-13T07:21:24.880Z,72
2023-09-13T07:21:56.087Z,72
2023-09-13T07:22:28.906Z,72
2023-09-13T07:22:59.928Z,72
2023-09-13T07:23:32.944Z,72
2023-09-13T07:24:04.054Z,72
2023-09-13T07:24:37.113Z,72
2023-09-13T07:25:08.317Z,72
2023-09-13T07:25:41.152Z,73
2023-09-13T07:26:11.957Z,73
2023-09-13T07:26:44.850Z,72
2023-09-13T07:27:16.150Z,72
2023-09-13T07:27:48.906Z,72
2023-09-13T07:28:20.024Z,72
2023-09-13T07:28:52.983Z,72
2023-09-13T07:29:23.995Z,72
2023-09-13T07:29:56.757Z,72
2023-09-13T07:30:29.100Z,72
2023-09-13T07:31:01.100Z,72
2023-09-13T07:31:32.031Z,72
2023-09-13T07:32:05.381Z,72
2023-09-13T07:32:36.373Z,72
2023-09-13T07:33:09.401Z,72
2023-09-13T07:33:40.157Z,72
2023-09-13T07:34:20.125Z,72
2023-09-13T07:34:44.408Z,72
2023-09-13T07:35:17.516Z,72
2023-09-13T07:35:48.330Z,72
2023-09-13T07:36:21.134Z,72
2023-09-13T07:36:51.889Z,72
2023-09-13T07:37:25.079Z,72
2023-09-13T07:37:59.070Z,72
2023-09-13T07:38:29.086Z,72
2023-09-13T07:38:59.902Z,72
2023-09-13T07:39:32.918Z,72
2023-09-13T07:40:04.322Z,72
2023-09-13T07:40:37.151Z,71
2023-09-13T07:41:08.269Z,71
2023-09-13T07:41:41.162Z,71
2023-09-13T07:42:12.355Z,71
2023-09-13T07:42:47.911Z,72
2023-09-13T07:43:17.908Z,72
2023-09-13T07:43:50.442Z,71
2023-09-13T07:44:21.077Z,71
2023-09-13T07:44:53.221Z,71
2023-09-13T07:45:25.516Z,71
2023-09-13T07:45:57.542Z,71
2023-09-13T07:46:28.391Z,71
2023-09-13T07:47:01.481Z,71
2023-09-13T07:47:33.489Z,71
2023-09-13T07:48:05.986Z,71
2023-09-13T07:48:36.954Z,71